City Of Vicksburg — WDC2660 — position and weather

sailwx.info

Track history (hours):
 
Tides and Currents Weather Stations Pressure Air Temp Water Temp Dewpoint Dewpoint Depression Visibility Wind Speed Wind Dir Waves Ship Positions

City Of Vicksburg

Owner: Kirby Inland Marine LP, Houston, TX. More information available from US FCC via Universal Licensing System and Coast Guard Vessel Documentation Center.

Last reported at 2017-Nov-14 14:19 UTC. Time now 2017-Nov-18 23:47 UTC.
Position N 32°59' W 091°10'.

Length 350 m; draft 3 m.

Type: . MMSI: 366996120.

Date/timePositionNaut miles runAvg speedWind from/ knotsBaromVisibWave heightAir tempDewpointWater temp
2017-Nov-14 14:19N 32°59' W 091°10'7 2.6
2017-Nov-14 11:40N 32°54' W 091°04'8 4.6
2017-Nov-14 10:02N 32°48' W 091°09'8 2.2
2017-Nov-14 06:14N 32°40' W 091°08'1 4.0
2017-Nov-14 06:01N 32°39' W 091°09'1 2.7
2017-Nov-14 05:30N 32°38' W 091°09'1 1.8
2017-Nov-14 05:00N 32°37' W 091°09'2 3.8
2017-Nov-14 04:31N 32°36' W 091°08'2 5.0
2017-Nov-14 04:01N 32°34' W 091°06'2 4.5
2017-Nov-14 03:30N 32°31' W 091°06'3 5.5
2017-Nov-14 03:01N 32°29' W 091°07'3 5.1
2017-Nov-14 02:31N 32°27' W 091°05'3 5.2
2017-Nov-14 02:01N 32°26' W 091°02'2 4.9
2017-Nov-14 01:31N 32°25' W 090°60'2 3.9
2017-Nov-14 01:00N 32°23' W 090°60'2 3.8
2017-Nov-14 00:31N 32°21' W 090°59'3 5.3
2017-Nov-14 00:01N 32°21' W 090°56'2 4.3
2017-Nov-13 23:31N 32°19' W 090°54'2 4.1
2017-Nov-13 23:00N 32°18' W 090°56'2 3.4
2017-Nov-13 22:30N 32°17' W 090°57'2 4.8
2017-Nov-13 22:00N 32°15' W 090°59'  
2017-Nov-09 11:29N 31°60' W 091°05'5 7.9
2017-Nov-09 10:51N 32°05' W 091°04'3 9.3
2017-Nov-09 10:31N 32°07' W 091°07'4 7.8
2017-Nov-09 10:01N 32°07' W 091°02'4 8.4
2017-Nov-09 09:31N 32°11' W 090°60'5 9.3
2017-Nov-09 09:01N 32°15' W 090°58'4 9.0
2017-Nov-09 08:31N 32°18' W 090°55'3 5.7
2017-Nov-09 08:01N 32°21' W 090°57'3 6.7
2017-Nov-09 07:31N 32°22' W 091°00'3 6.9
2017-Nov-09 07:01N 32°25' W 091°01'4 8.5
2017-Nov-09 06:31N 32°27' W 091°05'4 8.0
2017-Nov-09 06:01N 32°31' W 091°06'4 8.4
2017-Nov-09 05:31N 32°35' W 091°08'4 8.7
2017-Nov-09 05:00N 32°40' W 091°08'  
Track history (hours):
 
Tides and Currents Weather Stations Pressure Air Temp Water Temp Dewpoint Dewpoint Depression Visibility Wind Speed Wind Dir Waves Ship Positions

City Of Vicksburg

Owner: Kirby Inland Marine LP, Houston, TX. More information available from US FCC via Universal Licensing System and Coast Guard Vessel Documentation Center.

Last reported at 2017-Nov-14 14:19 UTC. Time now 2017-Nov-18 23:47 UTC.
Position N 32°59' W 091°10'.

Length 350 m; draft 3 m.

Type: . MMSI: 366996120.

Date/timePositionNaut miles runAvg speedWind from/ knotsBaromVisibWave heightAir tempDewpointWater temp
2017-Nov-14 14:19N 32°59' W 091°10'7 2.6
2017-Nov-14 11:40N 32°54' W 091°04'8 4.6
2017-Nov-14 10:02N 32°48' W 091°09'8 2.2
2017-Nov-14 06:14N 32°40' W 091°08'1 4.0
2017-Nov-14 06:01N 32°39' W 091°09'1 2.7
2017-Nov-14 05:30N 32°38' W 091°09'1 1.8
2017-Nov-14 05:00N 32°37' W 091°09'2 3.8
2017-Nov-14 04:31N 32°36' W 091°08'2 5.0
2017-Nov-14 04:01N 32°34' W 091°06'2 4.5
2017-Nov-14 03:30N 32°31' W 091°06'3 5.5
2017-Nov-14 03:01N 32°29' W 091°07'3 5.1
2017-Nov-14 02:31N 32°27' W 091°05'3 5.2
2017-Nov-14 02:01N 32°26' W 091°02'2 4.9
2017-Nov-14 01:31N 32°25' W 090°60'2 3.9
2017-Nov-14 01:00N 32°23' W 090°60'2 3.8
2017-Nov-14 00:31N 32°21' W 090°59'3 5.3
2017-Nov-14 00:01N 32°21' W 090°56'2 4.3
2017-Nov-13 23:31N 32°19' W 090°54'2 4.1
2017-Nov-13 23:00N 32°18' W 090°56'2 3.4
2017-Nov-13 22:30N 32°17' W 090°57'2 4.8
2017-Nov-13 22:00N 32°15' W 090°59'  
2017-Nov-09 11:29N 31°60' W 091°05'5 7.9
2017-Nov-09 10:51N 32°05' W 091°04'3 9.3
2017-Nov-09 10:31N 32°07' W 091°07'4 7.8
2017-Nov-09 10:01N 32°07' W 091°02'4 8.4
2017-Nov-09 09:31N 32°11' W 090°60'5 9.3
2017-Nov-09 09:01N 32°15' W 090°58'4 9.0
2017-Nov-09 08:31N 32°18' W 090°55'3 5.7
2017-Nov-09 08:01N 32°21' W 090°57'3 6.7
2017-Nov-09 07:31N 32°22' W 091°00'3 6.9
2017-Nov-09 07:01N 32°25' W 091°01'4 8.5
2017-Nov-09 06:31N 32°27' W 091°05'4 8.0
2017-Nov-09 06:01N 32°31' W 091°06'4 8.4
2017-Nov-09 05:31N 32°35' W 091°08'4 8.7
2017-Nov-09 05:00N 32°40' W 091°08'  

Dump ship's entire track history